createdAt,value
2022-08-28T00:00:33.428Z,21.50
2022-08-28T00:01:33.428Z,20.50
2022-08-28T00:02:33.441Z,22.10
2022-08-28T00:03:33.425Z,21.50
2022-08-28T00:04:33.461Z,20.00
2022-08-28T00:05:33.418Z,20.70
2022-08-28T00:06:33.413Z,21.10
2022-08-28T00:07:33.411Z,20.20
2022-08-28T00:08:33.407Z,22.60
2022-08-28T00:09:33.403Z,24.60
2022-08-28T00:10:33.400Z,19.20
2022-08-28T00:11:33.401Z,19.10
2022-08-28T00:12:33.394Z,20.30
2022-08-28T00:13:33.393Z,22.50
2022-08-28T00:14:33.391Z,26.00
2022-08-28T00:15:33.387Z,21.00
2022-08-28T00:16:33.464Z,20.10
2022-08-28T00:17:33.381Z,23.80
2022-08-28T00:18:33.373Z,26.80
2022-08-28T00:19:36.695Z,23.70
2022-08-28T00:20:33.380Z,23.30
2022-08-28T00:21:33.370Z,21.20
2022-08-28T00:22:33.367Z,21.30
2022-08-28T00:23:42.704Z,18.50
2022-08-28T00:24:33.359Z,23.20
2022-08-28T00:25:33.360Z,20.80
2022-08-28T00:26:33.357Z,20.00
2022-08-28T00:27:33.352Z,19.90
2022-08-28T00:28:33.349Z,22.50
2022-08-28T00:29:33.347Z,19.00
2022-08-28T00:30:33.340Z,21.00
2022-08-28T00:31:33.431Z,20.20
2022-08-28T00:32:33.336Z,20.40
2022-08-28T00:33:33.336Z,21.00
2022-08-28T00:34:33.861Z,20.80
2022-08-28T00:35:33.329Z,21.80
2022-08-28T00:36:33.326Z,18.60
2022-08-28T00:37:33.322Z,19.80
2022-08-28T00:38:33.320Z,19.80
2022-08-28T00:39:33.319Z,23.30
2022-08-28T00:40:33.966Z,20.30
2022-08-28T00:41:33.312Z,22.00
2022-08-28T00:42:33.309Z,19.50
2022-08-28T00:43:33.305Z,23.80
2022-08-28T00:44:33.304Z,19.50
2022-08-28T00:45:38.753Z,22.00
2022-08-28T00:46:33.338Z,24.40
2022-08-28T00:47:33.293Z,19.50
2022-08-28T00:48:33.291Z,20.80
2022-08-28T00:49:33.288Z,24.50
2022-08-28T00:50:33.286Z,25.40
2022-08-28T00:51:33.281Z,21.30
2022-08-28T00:52:33.279Z,20.80
2022-08-28T00:53:33.333Z,20.80
2022-08-28T00:54:33.273Z,18.50
2022-08-28T00:55:33.268Z,20.20
2022-08-28T00:56:33.267Z,21.90
2022-08-28T00:57:33.263Z,22.30
2022-08-28T00:58:33.263Z,19.60
2022-08-28T00:59:33.257Z,23.10
2022-08-28T01:00:33.255Z,17.40
2022-08-28T01:01:33.303Z,19.00
2022-08-28T01:02:33.349Z,20.70
2022-08-28T01:03:33.245Z,19.70
2022-08-28T01:04:33.242Z,20.20
2022-08-28T01:05:33.240Z,19.80
2022-08-28T01:06:33.237Z,20.40
2022-08-28T01:07:33.236Z,20.10
2022-08-28T01:08:33.231Z,18.90
2022-08-28T01:09:33.228Z,22.50
2022-08-28T01:10:33.224Z,19.00
2022-08-28T01:11:33.223Z,17.30
2022-08-28T01:12:33.219Z,21.10
2022-08-28T01:13:33.214Z,18.00
2022-08-28T01:14:33.214Z,19.50
2022-08-28T01:15:33.269Z,18.60
2022-08-28T01:16:34.455Z,17.70
2022-08-28T01:17:33.204Z,17.90
2022-08-28T01:18:33.201Z,21.20
2022-08-28T01:19:33.199Z,18.80
2022-08-28T01:20:33.198Z,17.70
2022-08-28T01:21:33.195Z,21.90
2022-08-28T01:22:33.190Z,20.30
2022-08-28T01:23:33.186Z,18.50
2022-08-28T01:24:33.184Z,19.50
2022-08-28T01:25:33.180Z,21.00
2022-08-28T01:26:33.180Z,19.40
2022-08-28T01:27:33.174Z,21.20
2022-08-28T01:28:33.172Z,20.30
2022-08-28T01:29:33.168Z,18.30
2022-08-28T01:30:33.163Z,22.80
2022-08-28T01:31:33.225Z,19.70
2022-08-28T01:32:33.158Z,24.10
2022-08-28T01:33:33.156Z,20.60
2022-08-28T01:34:33.155Z,23.80
2022-08-28T01:35:33.161Z,23.10
2022-08-28T01:36:33.149Z,20.70
2022-08-28T01:37:33.144Z,18.30
2022-08-28T01:38:33.141Z,26.00
2022-08-28T01:39:33.138Z,22.60
2022-08-28T01:40:33.207Z,22.90
2022-08-28T01:41:33.131Z,23.80
2022-08-28T01:42:33.131Z,22.80
2022-08-28T01:43:33.126Z,21.40
2022-08-28T01:44:33.122Z,23.10
2022-08-28T01:45:33.120Z,22.10
2022-08-28T01:46:33.210Z,23.80
2022-08-28T01:47:33.114Z,23.00
2022-08-28T01:48:33.111Z,22.90
2022-08-28T01:49:33.107Z,21.60
2022-08-28T01:50:33.104Z,23.80
2022-08-28T01:51:34.978Z,20.90
2022-08-28T01:52:33.099Z,25.30
2022-08-28T01:53:33.518Z,23.40
2022-08-28T01:54:33.093Z,22.30
2022-08-28T01:55:33.090Z,24.60
2022-08-28T01:56:33.086Z,24.80
2022-08-28T01:57:33.083Z,23.00
2022-08-28T01:58:37.916Z,24.80
2022-08-28T01:59:33.077Z,24.20
2022-08-28T02:00:33.072Z,21.90
2022-08-28T02:01:33.091Z,23.90
2022-08-28T02:02:33.068Z,26.50
2022-08-28T02:03:33.062Z,24.50
2022-08-28T02:04:33.129Z,30.00
2022-08-28T02:05:33.058Z,24.60
2022-08-28T02:06:33.060Z,23.90
2022-08-28T02:07:33.052Z,25.10
2022-08-28T02:08:33.048Z,24.20
2022-08-28T02:09:33.047Z,25.20
2022-08-28T02:10:33.045Z,25.50
2022-08-28T02:11:33.041Z,26.80
2022-08-28T02:12:33.036Z,25.70
2022-08-28T02:13:33.034Z,25.10
2022-08-28T02:14:33.033Z,27.60
2022-08-28T02:15:33.074Z,25.50
2022-08-28T02:16:33.023Z,25.20
2022-08-28T02:17:33.025Z,27.50
2022-08-28T02:18:33.018Z,26.00
2022-08-28T02:19:33.014Z,27.10
2022-08-28T02:20:33.013Z,28.20
2022-08-28T02:21:33.008Z,27.80
2022-08-28T02:22:33.005Z,25.40
2022-08-28T02:23:33.001Z,25.70
2022-08-28T02:24:33.000Z,24.10
2022-08-28T02:25:32.997Z,23.00
2022-08-28T02:26:32.993Z,26.10
2022-08-28T02:27:32.992Z,26.70
2022-08-28T02:28:32.986Z,28.40
2022-08-28T02:29:32.977Z,27.70
2022-08-28T02:30:32.979Z,30.80
2022-08-28T02:31:32.976Z,30.10
2022-08-28T02:32:32.973Z,26.60
2022-08-28T02:33:32.967Z,24.40
2022-08-28T02:34:32.967Z,26.90
2022-08-28T02:35:32.966Z,23.60
2022-08-28T02:36:32.959Z,24.00
2022-08-28T02:37:32.974Z,27.80
2022-08-28T02:38:32.955Z,23.40
2022-08-28T02:39:32.951Z,26.60
2022-08-28T02:40:32.997Z,25.30
2022-08-28T02:41:32.944Z,25.80
2022-08-28T02:42:32.942Z,22.20
2022-08-28T02:43:40.101Z,24.80
2022-08-28T02:45:36.939Z,24.30
2022-08-28T02:46:36.999Z,24.90
2022-08-28T02:48:40.901Z,24.60
2022-08-28T02:49:40.893Z,24.40
2022-08-28T02:51:44.925Z,27.10
2022-08-28T02:52:44.903Z,24.00
2022-08-28T02:54:37.842Z,23.70
2022-08-28T02:55:37.833Z,23.80
2022-08-28T02:57:41.820Z,25.20
2022-08-28T02:58:41.812Z,24.40
2022-08-28T03:00:35.562Z,24.90
2022-08-28T03:01:35.203Z,26.30
2022-08-28T03:03:39.149Z,19.90
2022-08-28T03:04:39.136Z,23.30
2022-08-28T03:06:32.257Z,22.80
2022-08-28T03:07:32.239Z,22.00
2022-08-28T03:09:36.317Z,21.40
2022-08-28T03:10:36.298Z,23.20
2022-08-28T03:12:51.388Z,20.60
2022-08-28T03:13:51.380Z,20.50
2022-08-28T03:15:44.498Z,22.30
2022-08-28T03:16:44.498Z,20.80
2022-08-28T03:18:48.470Z,22.70
2022-08-28T03:19:48.459Z,20.60
2022-08-28T03:21:52.463Z,21.90
2022-08-28T03:22:52.476Z,20.70
2022-08-28T03:24:45.384Z,20.50
2022-08-28T03:25:45.367Z,18.70
2022-08-28T03:27:38.505Z,18.40
2022-08-28T03:28:38.489Z,19.60
2022-08-28T03:30:42.541Z,21.40
2022-08-28T03:31:42.472Z,18.30
2022-08-28T03:33:35.405Z,17.20
2022-08-28T03:34:35.393Z,20.40
2022-08-28T03:35:35.400Z,20.90
2022-08-28T03:36:35.389Z,20.80
2022-08-28T03:37:35.387Z,22.40
2022-08-28T03:38:35.379Z,22.30
2022-08-28T03:39:35.400Z,21.30
2022-08-28T03:40:35.407Z,23.50
2022-08-28T03:41:35.367Z,20.00
2022-08-28T03:42:35.375Z,18.30
2022-08-28T03:43:35.366Z,19.80
2022-08-28T03:44:35.359Z,17.50
2022-08-28T03:45:35.402Z,20.30
2022-08-28T03:46:35.353Z,18.00
2022-08-28T03:47:35.353Z,20.20
2022-08-28T03:48:35.346Z,18.50
2022-08-28T03:49:35.343Z,19.00
2022-08-28T03:50:35.342Z,16.80
2022-08-28T03:51:35.343Z,18.80
2022-08-28T03:52:35.334Z,23.10
2022-08-28T03:53:35.330Z,21.50
2022-08-28T03:54:35.325Z,18.60
2022-08-28T03:55:35.324Z,21.40
2022-08-28T03:56:35.328Z,21.80
2022-08-28T03:57:35.322Z,18.50
2022-08-28T03:58:35.318Z,18.00
2022-08-28T03:59:35.310Z,17.40
2022-08-28T04:00:35.302Z,20.70
2022-08-28T04:01:35.335Z,22.40
2022-08-28T04:02:35.320Z,19.50
2022-08-28T04:03:35.386Z,18.30
2022-08-28T04:04:35.293Z,16.30
2022-08-28T04:05:35.285Z,18.60
2022-08-28T04:06:36.062Z,18.20
2022-08-28T04:07:35.281Z,20.20
2022-08-28T04:08:35.276Z,16.10
2022-08-28T04:09:35.273Z,19.40
2022-08-28T04:10:35.268Z,22.30
2022-08-28T04:11:35.263Z,18.30
2022-08-28T04:12:35.536Z,17.40
2022-08-28T04:13:35.259Z,18.80
2022-08-28T04:14:35.263Z,20.00
2022-08-28T04:15:35.252Z,19.70
2022-08-28T04:16:35.293Z,18.80
2022-08-28T04:17:35.242Z,18.60
2022-08-28T04:18:35.241Z,18.30
2022-08-28T04:19:35.245Z,21.00
2022-08-28T04:20:35.229Z,17.60
2022-08-28T04:21:35.228Z,19.80
2022-08-28T04:22:35.225Z,23.20
2022-08-28T04:23:35.225Z,18.70
2022-08-28T04:24:35.219Z,23.20
2022-08-28T04:25:35.215Z,22.30
2022-08-28T04:26:35.218Z,20.50
2022-08-28T04:27:35.209Z,19.30
2022-08-28T04:28:35.202Z,19.10
2022-08-28T04:29:35.202Z,18.70
2022-08-28T04:30:35.194Z,20.20
2022-08-28T04:31:35.237Z,19.70
2022-08-28T04:32:35.194Z,20.40
2022-08-28T04:33:35.190Z,20.10
2022-08-28T04:34:35.181Z,24.50
2022-08-28T04:35:35.181Z,21.20
2022-08-28T04:36:35.188Z,17.80
2022-08-28T04:37:35.169Z,21.40
2022-08-28T04:38:35.170Z,18.20
2022-08-28T04:39:35.164Z,19.60
2022-08-28T04:40:35.215Z,20.10
2022-08-28T04:41:35.158Z,18.10
2022-08-28T04:42:35.152Z,23.30
2022-08-28T04:43:35.145Z,19.30
2022-08-28T04:44:35.146Z,21.10
2022-08-28T04:45:35.192Z,21.50
2022-08-28T04:46:35.140Z,17.70
2022-08-28T04:47:35.153Z,16.00
2022-08-28T04:48:35.151Z,21.30
2022-08-28T04:49:35.125Z,16.70
2022-08-28T04:50:35.190Z,17.70
2022-08-28T04:51:37.853Z,18.80
2022-08-28T04:52:35.120Z,21.00
2022-08-28T04:53:35.110Z,20.30
2022-08-28T04:54:35.133Z,19.40
2022-08-28T04:55:54.511Z,21.40
2022-08-28T04:56:35.107Z,17.70
2022-08-28T04:57:36.553Z,20.70
2022-08-28T04:58:35.097Z,18.50
2022-08-28T04:59:35.089Z,18.30
2022-08-28T05:00:35.107Z,17.70
2022-08-28T05:01:35.132Z,18.20
2022-08-28T05:02:35.117Z,17.90
2022-08-28T05:03:35.075Z,17.90
2022-08-28T05:04:35.073Z,21.00
2022-08-28T05:05:35.093Z,18.20
2022-08-28T05:06:35.080Z,19.30
2022-08-28T05:07:35.068Z,20.90
2022-08-28T05:08:35.057Z,20.60
2022-08-28T05:09:35.054Z,18.20
2022-08-28T05:10:35.051Z,19.60
2022-08-28T05:11:35.239Z,21.70
2022-08-28T05:12:35.045Z,18.10
2022-08-28T05:13:35.038Z,18.00
2022-08-28T05:14:35.043Z,16.70
2022-08-28T05:15:35.033Z,18.50
2022-08-28T05:16:35.096Z,18.60
2022-08-28T05:17:35.019Z,19.60
2022-08-28T05:18:35.022Z,21.50
2022-08-28T05:19:35.022Z,17.10
2022-08-28T05:20:35.013Z,16.30
2022-08-28T05:21:35.017Z,19.00
2022-08-28T05:22:35.009Z,20.40
2022-08-28T05:23:35.004Z,17.90
2022-08-28T05:24:35.001Z,19.10
2022-08-28T05:25:35.001Z,18.10
2022-08-28T05:26:34.993Z,22.40
2022-08-28T05:27:34.986Z,19.90
2022-08-28T05:28:34.985Z,20.40
2022-08-28T05:29:34.980Z,17.40
2022-08-28T05:30:34.986Z,20.40
2022-08-28T05:31:35.055Z,15.70
2022-08-28T05:32:34.976Z,21.50
2022-08-28T05:33:34.970Z,17.00
2022-08-28T05:34:34.966Z,20.30
2022-08-28T05:35:34.965Z,18.90
2022-08-28T05:36:34.958Z,19.70
2022-08-28T05:37:34.949Z,19.60
2022-08-28T05:38:34.952Z,22.90
2022-08-28T05:39:34.949Z,18.50
2022-08-28T05:40:34.986Z,20.20
2022-08-28T05:41:34.953Z,20.60
2022-08-28T05:42:38.900Z,18.40
2022-08-28T05:43:34.941Z,16.40
2022-08-28T05:44:34.928Z,17.10
2022-08-28T05:45:34.970Z,21.80
2022-08-28T05:46:34.929Z,18.20
2022-08-28T05:47:34.917Z,17.00
2022-08-28T05:48:37.064Z,18.80
2022-08-28T05:49:34.919Z,17.90
2022-08-28T05:50:34.905Z,22.00
2022-08-28T05:51:34.903Z,22.20
2022-08-28T05:52:34.900Z,22.60
2022-08-28T05:53:34.896Z,16.50
2022-08-28T05:54:34.892Z,19.20
2022-08-28T05:55:34.889Z,22.40
2022-08-28T05:56:34.883Z,16.90
2022-08-28T05:57:34.899Z,22.30
2022-08-28T05:58:34.878Z,19.00
2022-08-28T05:59:34.871Z,20.20
2022-08-28T06:00:34.864Z,21.40
2022-08-28T06:01:34.898Z,21.60
2022-08-28T06:02:34.870Z,20.10
2022-08-28T06:03:34.875Z,19.60
2022-08-28T06:04:34.940Z,21.30
2022-08-28T06:05:34.862Z,23.40
2022-08-28T06:06:34.851Z,18.80
2022-08-28T06:07:34.840Z,17.20
2022-08-28T06:08:34.842Z,20.00
2022-08-28T06:09:34.856Z,20.10
2022-08-28T06:10:34.833Z,18.70
2022-08-28T06:11:34.831Z,16.50
2022-08-28T06:12:34.823Z,21.00
2022-08-28T06:13:34.821Z,19.00
2022-08-28T06:14:34.820Z,20.00
2022-08-28T06:15:34.812Z,25.00
2022-08-28T06:16:34.859Z,20.00
2022-08-28T06:17:34.804Z,24.90
2022-08-28T06:18:34.805Z,21.10
2022-08-28T06:19:37.236Z,21.40
2022-08-28T06:20:34.800Z,21.60
2022-08-28T06:21:34.792Z,20.70
2022-08-28T06:22:34.795Z,19.70
2022-08-28T06:23:34.805Z,19.40
2022-08-28T06:24:34.814Z,21.40
2022-08-28T06:25:34.778Z,20.50
2022-08-28T06:26:34.771Z,18.80
2022-08-28T06:27:34.771Z,20.20
2022-08-28T06:28:34.771Z,19.10
2022-08-28T06:29:34.764Z,19.00
2022-08-28T06:30:34.755Z,19.80
2022-08-28T06:31:34.819Z,21.80
2022-08-28T06:32:34.751Z,21.00
2022-08-28T06:33:34.746Z,21.70
2022-08-28T06:34:34.755Z,21.40
2022-08-28T06:35:34.742Z,19.70
2022-08-28T06:36:34.738Z,18.40
2022-08-28T06:37:34.733Z,20.90
2022-08-28T06:38:34.735Z,22.10
2022-08-28T06:39:34.727Z,19.10
2022-08-28T06:40:34.835Z,23.40
2022-08-28T06:41:34.719Z,22.50
2022-08-28T06:42:34.715Z,18.20
2022-08-28T06:43:34.715Z,18.90
2022-08-28T06:44:34.710Z,17.30
2022-08-28T06:45:34.726Z,19.30
2022-08-28T06:46:34.708Z,18.50
2022-08-28T06:47:34.702Z,20.80
2022-08-28T06:48:34.695Z,17.00
2022-08-28T06:49:34.688Z,19.10
2022-08-28T06:50:34.710Z,17.40
2022-08-28T06:51:34.681Z,18.90
2022-08-28T06:52:34.679Z,17.70
2022-08-28T06:53:34.697Z,15.10
2022-08-28T06:54:34.672Z,16.00
2022-08-28T06:55:34.670Z,18.00
2022-08-28T06:56:34.663Z,18.50
2022-08-28T06:57:34.667Z,16.00
2022-08-28T06:58:34.662Z,18.20
2022-08-28T06:59:34.658Z,15.10
2022-08-28T07:00:34.658Z,17.10
2022-08-28T07:01:34.763Z,17.30
2022-08-28T07:02:34.691Z,16.70
2022-08-28T07:03:34.650Z,15.60
2022-08-28T07:04:34.637Z,14.20
2022-08-28T07:05:34.662Z,16.20
2022-08-28T07:06:34.630Z,15.50
2022-08-28T07:07:34.630Z,15.90
2022-08-28T07:08:34.678Z,16.50
2022-08-28T07:09:34.621Z,14.50
2022-08-28T07:10:34.622Z,15.70
2022-08-28T07:11:34.626Z,14.40
2022-08-28T07:12:34.610Z,17.30
2022-08-28T07:13:34.612Z,16.70
2022-08-28T07:14:34.604Z,17.60
2022-08-28T07:15:34.658Z,16.20
2022-08-28T07:16:34.598Z,16.30
2022-08-28T07:17:34.599Z,17.60
2022-08-28T07:18:34.594Z,16.80
2022-08-28T07:19:34.593Z,17.00
2022-08-28T07:20:34.594Z,14.20
2022-08-28T07:21:38.326Z,17.00
2022-08-28T07:22:34.584Z,16.50
2022-08-28T07:23:34.584Z,16.50
2022-08-28T07:24:34.631Z,14.90
2022-08-28T07:25:34.606Z,17.30
2022-08-28T07:26:35.730Z,15.10
2022-08-28T07:27:34.567Z,15.30
2022-08-28T07:28:34.572Z,14.00
2022-08-28T07:29:34.556Z,14.80
2022-08-28T07:30:34.559Z,14.30
2022-08-28T07:31:34.588Z,16.20
2022-08-28T07:32:34.551Z,16.70
2022-08-28T07:33:34.558Z,17.40
2022-08-28T07:34:34.547Z,17.10
2022-08-28T07:35:34.542Z,18.30
2022-08-28T07:36:34.544Z,18.70
2022-08-28T07:37:34.535Z,20.90
2022-08-28T07:38:34.535Z,18.00
2022-08-28T07:39:34.531Z,16.50
2022-08-28T07:40:34.588Z,17.80
2022-08-28T07:41:34.523Z,14.90
2022-08-28T07:42:35.730Z,15.20
2022-08-28T07:43:34.526Z,18.70
2022-08-28T07:44:34.513Z,18.20
2022-08-28T07:45:34.540Z,18.60
2022-08-28T07:46:34.510Z,20.20
2022-08-28T07:47:34.507Z,17.90
2022-08-28T07:48:34.504Z,18.20
2022-08-28T07:49:34.504Z,19.60
2022-08-28T07:50:34.497Z,17.60
2022-08-28T07:51:34.500Z,17.10
2022-08-28T07:52:34.491Z,17.70
2022-08-28T07:53:36.530Z,17.00
2022-08-28T07:54:34.513Z,18.20
2022-08-28T07:55:34.481Z,17.20
2022-08-28T07:56:34.482Z,16.40
2022-08-28T07:57:34.474Z,16.30
2022-08-28T07:58:34.478Z,15.20
2022-08-28T07:59:36.899Z,16.70
2022-08-28T08:00:34.468Z,17.10
2022-08-28T08:01:34.492Z,17.50
2022-08-28T08:02:34.466Z,19.00
2022-08-28T08:03:34.486Z,15.80
2022-08-28T08:04:34.464Z,16.20
2022-08-28T08:05:34.454Z,15.40
2022-08-28T08:06:34.605Z,15.60
2022-08-28T08:07:34.452Z,18.50
2022-08-28T08:08:34.450Z,15.70
2022-08-28T08:09:34.446Z,16.50
2022-08-28T08:10:34.774Z,17.50
2022-08-28T08:11:34.442Z,16.60
2022-08-28T08:12:34.445Z,17.60
2022-08-28T08:13:34.439Z,18.10
2022-08-28T08:14:34.434Z,14.20
2022-08-28T08:15:34.470Z,18.70
2022-08-28T08:16:34.442Z,16.00
2022-08-28T08:17:34.424Z,17.80
2022-08-28T08:18:34.425Z,18.90
2022-08-28T08:19:34.418Z,19.10
2022-08-28T08:20:34.422Z,17.50
2022-08-28T08:21:34.416Z,18.50
2022-08-28T08:22:34.415Z,16.70
2022-08-28T08:23:34.420Z,18.60
2022-08-28T08:24:34.410Z,15.80
2022-08-28T08:25:34.430Z,17.90
2022-08-28T08:26:34.411Z,18.90
2022-08-28T08:27:34.400Z,17.20
2022-08-28T08:28:34.395Z,17.40
2022-08-28T08:29:34.395Z,18.00
2022-08-28T08:30:34.402Z,20.80
2022-08-28T08:31:35.210Z,19.60
2022-08-28T08:32:34.397Z,18.80
2022-08-28T08:33:34.384Z,18.60
2022-08-28T08:34:34.383Z,19.30
2022-08-28T08:35:34.382Z,18.60
2022-08-28T08:36:34.384Z,21.10
2022-08-28T08:37:34.374Z,18.10
2022-08-28T08:38:34.372Z,17.60
2022-08-28T08:39:34.371Z,19.00
2022-08-28T08:40:34.402Z,16.00
2022-08-28T08:41:34.365Z,19.90
2022-08-28T08:42:34.360Z,16.90
2022-08-28T08:43:41.528Z,16.80
2022-08-28T08:45:38.350Z,18.60
2022-08-28T08:46:38.368Z,19.10
2022-08-28T08:48:31.453Z,15.30
2022-08-28T08:49:31.436Z,19.00
2022-08-28T08:51:24.547Z,17.40
2022-08-28T08:52:24.541Z,15.00
2022-08-28T08:54:28.532Z,17.40
2022-08-28T08:55:28.517Z,16.80
2022-08-28T08:57:21.632Z,18.70
2022-08-28T08:58:21.620Z,19.00
2022-08-28T08:59:21.611Z,19.30
2022-08-28T09:00:21.612Z,18.50
2022-08-28T09:01:21.669Z,18.80
2022-08-28T09:02:21.609Z,16.00
2022-08-28T09:03:21.666Z,18.40
2022-08-28T09:04:21.805Z,17.70
2022-08-28T09:05:21.636Z,17.90
2022-08-28T09:06:21.596Z,20.70
2022-08-28T09:07:21.593Z,16.40
2022-08-28T09:08:21.586Z,17.50
2022-08-28T09:09:21.586Z,17.40
2022-08-28T09:10:21.584Z,16.30
2022-08-28T09:11:21.574Z,16.80
2022-08-28T09:12:21.578Z,15.50
2022-08-28T09:13:21.571Z,15.20
2022-08-28T09:14:21.571Z,19.40
2022-08-28T09:15:21.568Z,19.10
2022-08-28T09:16:21.619Z,20.00
2022-08-28T09:17:21.561Z,16.10
2022-08-28T09:18:21.560Z,15.10
2022-08-28T09:19:21.553Z,13.70
2022-08-28T09:20:21.554Z,17.50
2022-08-28T09:21:23.285Z,14.30
2022-08-28T09:22:21.545Z,16.60
2022-08-28T09:23:21.545Z,17.70
2022-08-28T09:24:21.536Z,16.10
2022-08-28T09:25:21.533Z,19.30
2022-08-28T09:26:21.532Z,15.00
2022-08-28T09:27:21.538Z,15.60
2022-08-28T09:28:21.526Z,13.40
2022-08-28T09:29:21.525Z,16.40
2022-08-28T09:30:21.522Z,16.20
2022-08-28T09:31:21.549Z,15.50
2022-08-28T09:32:21.512Z,17.90
2022-08-28T09:33:21.508Z,13.20
2022-08-28T09:34:21.507Z,13.40
2022-08-28T09:35:21.503Z,14.70
2022-08-28T09:36:21.500Z,13.50
2022-08-28T09:37:21.501Z,15.40
2022-08-28T09:38:21.496Z,14.10
2022-08-28T09:39:21.491Z,15.10
2022-08-28T09:40:21.520Z,15.80
2022-08-28T09:41:21.486Z,15.80
2022-08-28T09:42:21.481Z,15.70
2022-08-28T09:43:21.476Z,15.20
2022-08-28T09:44:21.474Z,13.30
2022-08-28T09:45:21.484Z,15.80
2022-08-28T09:46:21.558Z,15.30
2022-08-28T09:47:21.470Z,16.70
2022-08-28T09:48:21.481Z,14.60
2022-08-28T09:49:21.459Z,16.10
2022-08-28T09:50:21.465Z,14.50
2022-08-28T09:51:21.453Z,17.70
2022-08-28T09:52:25.128Z,13.90
2022-08-28T09:53:21.446Z,17.30
2022-08-28T09:54:21.445Z,16.00
2022-08-28T09:55:21.438Z,14.70
2022-08-28T09:56:21.439Z,13.80
2022-08-28T09:57:21.436Z,15.50
2022-08-28T09:58:21.431Z,15.80
2022-08-28T09:59:21.432Z,15.00
2022-08-28T10:00:21.426Z,16.00
2022-08-28T10:01:21.479Z,16.70
2022-08-28T10:02:21.423Z,18.70
2022-08-28T10:03:21.428Z,14.10
2022-08-28T10:04:21.443Z,15.00
2022-08-28T10:05:25.788Z,14.60
2022-08-28T10:06:21.410Z,16.10
2022-08-28T10:07:21.407Z,14.40
2022-08-28T10:08:21.402Z,13.60
2022-08-28T10:09:21.398Z,15.10
2022-08-28T10:10:21.407Z,19.80
2022-08-28T10:11:21.395Z,16.60
2022-08-28T10:12:21.392Z,16.50
2022-08-28T10:13:21.387Z,17.20
2022-08-28T10:14:21.383Z,15.60
2022-08-28T10:15:21.388Z,16.00
2022-08-28T10:16:21.428Z,14.40
2022-08-28T10:17:21.713Z,13.70
2022-08-28T10:18:21.373Z,14.50
2022-08-28T10:19:21.365Z,16.10
2022-08-28T10:20:21.365Z,17.00
2022-08-28T10:21:21.366Z,16.00
2022-08-28T10:22:21.364Z,17.10
2022-08-28T10:23:21.357Z,15.50
2022-08-28T10:24:27.410Z,16.40
2022-08-28T10:25:21.363Z,16.70
2022-08-28T10:26:21.344Z,15.00
2022-08-28T10:27:21.350Z,15.90
2022-08-28T10:28:21.357Z,17.40
2022-08-28T10:29:21.339Z,18.30
2022-08-28T10:30:21.334Z,18.30
2022-08-28T10:31:21.406Z,17.30
2022-08-28T10:32:21.328Z,16.50
2022-08-28T10:33:21.320Z,17.20
2022-08-28T10:34:21.322Z,16.00
2022-08-28T10:35:21.315Z,18.10
2022-08-28T10:36:33.864Z,18.40
2022-08-28T10:37:21.310Z,19.00
2022-08-28T10:38:21.307Z,17.10
2022-08-28T10:39:21.303Z,21.80
2022-08-28T10:40:21.365Z,17.60
2022-08-28T10:41:21.300Z,20.20
2022-08-28T10:42:21.294Z,20.30
2022-08-28T10:43:21.289Z,20.50
2022-08-28T10:44:21.285Z,19.50
2022-08-28T10:45:21.285Z,21.20
2022-08-28T10:46:25.270Z,21.40
2022-08-28T10:47:21.282Z,20.30
2022-08-28T10:48:21.295Z,21.00
2022-08-28T10:49:21.272Z,18.90
2022-08-28T10:50:21.270Z,18.70
2022-08-28T10:51:30.166Z,18.90
2022-08-28T10:52:21.259Z,18.40
2022-08-28T10:53:21.261Z,16.80
2022-08-28T10:54:21.255Z,18.40
2022-08-28T10:55:21.253Z,18.10
2022-08-28T10:56:21.249Z,18.60
2022-08-28T10:57:21.247Z,15.30
2022-08-28T10:58:25.126Z,17.60
2022-08-28T10:59:21.239Z,19.10
2022-08-28T11:00:21.233Z,18.30
2022-08-28T11:01:21.254Z,18.50
2022-08-28T11:02:21.273Z,17.90
2022-08-28T11:03:33.942Z,17.40
2022-08-28T11:04:25.427Z,15.90
2022-08-28T11:05:21.217Z,16.60
2022-08-28T11:06:21.212Z,14.90
2022-08-28T11:07:21.210Z,16.50
2022-08-28T11:08:21.206Z,14.50
2022-08-28T11:09:21.200Z,15.60
2022-08-28T11:10:21.201Z,14.70
2022-08-28T11:11:21.198Z,14.30
2022-08-28T11:12:21.194Z,16.10
2022-08-28T11:13:21.191Z,15.40
2022-08-28T11:14:21.191Z,17.20
2022-08-28T11:15:21.185Z,18.50
2022-08-28T11:16:21.236Z,18.80
2022-08-28T11:17:21.177Z,16.10
2022-08-28T11:18:21.173Z,17.90
2022-08-28T11:19:21.168Z,17.50
2022-08-28T11:20:21.171Z,18.50
2022-08-28T11:21:21.166Z,17.50
2022-08-28T11:22:21.156Z,18.10
2022-08-28T11:23:21.155Z,16.80
2022-08-28T11:24:21.154Z,20.30
2022-08-28T11:25:26.452Z,17.00
2022-08-28T11:26:21.146Z,18.80
2022-08-28T11:27:21.146Z,19.10
2022-08-28T11:28:21.144Z,17.80
2022-08-28T11:29:21.145Z,18.60
2022-08-28T11:30:21.133Z,17.90
2022-08-28T11:31:29.032Z,18.60
2022-08-28T11:32:21.128Z,18.20
2022-08-28T11:33:21.123Z,18.30
2022-08-28T11:34:21.118Z,20.30
2022-08-28T11:35:21.129Z,19.10
2022-08-28T11:36:21.118Z,19.50
2022-08-28T11:37:21.110Z,17.20
2022-08-28T11:38:21.108Z,17.60
2022-08-28T11:39:21.101Z,19.10
2022-08-28T11:40:21.158Z,18.00
2022-08-28T11:41:21.098Z,22.00
2022-08-28T11:42:21.095Z,18.90
2022-08-28T11:43:21.092Z,19.70
2022-08-28T11:44:21.088Z,19.70
2022-08-28T11:45:21.086Z,20.10
2022-08-28T11:46:24.025Z,19.80
2022-08-28T11:47:21.081Z,19.90
2022-08-28T11:48:21.076Z,17.10
2022-08-28T11:49:21.073Z,17.60
2022-08-28T11:50:21.072Z,17.30
2022-08-28T11:51:21.069Z,17.30
2022-08-28T11:52:21.061Z,20.10
2022-08-28T11:53:21.055Z,18.20
2022-08-28T11:54:21.059Z,16.20
2022-08-28T11:55:21.052Z,18.10
2022-08-28T11:56:30.502Z,16.70
2022-08-28T11:57:21.046Z,16.10
2022-08-28T11:58:21.047Z,17.30
2022-08-28T11:59:21.038Z,18.10
2022-08-28T12:00:21.036Z,18.60
2022-08-28T12:01:21.098Z,17.00
2022-08-28T12:02:21.119Z,15.80
2022-08-28T12:03:21.028Z,16.80
2022-08-28T12:04:21.064Z,17.20
2022-08-28T12:05:21.020Z,17.70
2022-08-28T12:06:21.021Z,17.00
2022-08-28T12:07:21.016Z,15.30
2022-08-28T12:08:21.011Z,14.80
2022-08-28T12:09:21.008Z,17.60
2022-08-28T12:10:21.011Z,15.60
2022-08-28T12:11:21.027Z,16.30
2022-08-28T12:12:20.999Z,16.20
2022-08-28T12:13:20.995Z,15.80
2022-08-28T12:14:20.995Z,17.50
2022-08-28T12:15:20.991Z,16.20
2022-08-28T12:16:21.035Z,15.80
2022-08-28T12:17:20.985Z,14.80
2022-08-28T12:18:20.982Z,16.20
2022-08-28T12:19:20.980Z,12.90
2022-08-28T12:20:20.975Z,15.20
2022-08-28T12:21:20.973Z,16.20
2022-08-28T12:22:20.969Z,13.80
2022-08-28T12:23:20.966Z,13.50
2022-08-28T12:24:20.969Z,14.00
2022-08-28T12:25:20.960Z,14.80
2022-08-28T12:26:20.959Z,16.40
2022-08-28T12:27:20.955Z,14.70
2022-08-28T12:28:20.955Z,12.90
2022-08-28T12:29:20.948Z,13.30
2022-08-28T12:30:20.947Z,12.70
2022-08-28T12:31:21.030Z,14.00
2022-08-28T12:32:20.941Z,12.10
2022-08-28T12:33:20.933Z,12.50
2022-08-28T12:34:20.933Z,14.50
2022-08-28T12:35:20.935Z,12.10
2022-08-28T12:36:20.929Z,11.60
2022-08-28T12:37:20.926Z,12.60
2022-08-28T12:38:20.929Z,15.20
2022-08-28T12:39:20.917Z,13.30
2022-08-28T12:40:20.970Z,11.30
2022-08-28T12:41:21.038Z,13.90
2022-08-28T12:42:20.909Z,16.20
2022-08-28T12:43:20.904Z,15.40
2022-08-28T12:44:20.903Z,15.90
2022-08-28T12:45:20.900Z,14.50
2022-08-28T12:46:20.926Z,14.10
2022-08-28T12:47:20.894Z,13.50
2022-08-28T12:48:20.892Z,14.40
2022-08-28T12:49:20.887Z,14.50
2022-08-28T12:50:20.885Z,14.00
2022-08-28T12:51:20.883Z,13.00
2022-08-28T12:52:20.879Z,13.40
2022-08-28T12:53:20.876Z,12.00
2022-08-28T12:54:20.876Z,12.20
2022-08-28T12:55:24.320Z,12.90
2022-08-28T12:56:20.867Z,13.20
2022-08-28T12:57:20.864Z,12.40
2022-08-28T12:58:20.861Z,13.60
2022-08-28T12:59:20.857Z,15.20
2022-08-28T13:00:20.854Z,16.10
2022-08-28T13:01:20.981Z,12.20
2022-08-28T13:02:21.107Z,12.70
2022-08-28T13:03:20.846Z,13.00
2022-08-28T13:04:20.844Z,11.80
2022-08-28T13:05:20.843Z,11.90
2022-08-28T13:06:20.839Z,15.30
2022-08-28T13:07:20.841Z,11.60
2022-08-28T13:08:20.835Z,14.30
2022-08-28T13:09:20.827Z,10.90
2022-08-28T13:10:20.824Z,11.20
2022-08-28T13:11:20.823Z,13.30
2022-08-28T13:12:20.819Z,12.20
2022-08-28T13:13:20.821Z,15.30
2022-08-28T13:14:20.816Z,11.60